Gordonville, Texas
Current Conditions -  °F | °C
As of 11:35 AM on Friday 24 Oct 2014 (Local Time) from KGYI Reporting Station
Clear Clear  
Wind Chill: 73°   Ceiling: Unl
Heat Index: 73°   Visibility: 10mi
Dew Point: 60°   Wind: 10mph
Humidity: 63%   Direction: 200°SSW
Pressure: 30.17"   Gusts: NA
Location:  33.8°N, 96.85°W
Report Text: KGYI 241635Z AUTO 20009KT 10SM CLR 23/16 A3017 RMK AO2 T02300156
Loading
Personal Weather Stations






























Interactive Weather Map
Tropical Storm Tracking
New forecast layout! Learn more

10-Day Weather Forecast

Advertisements
Track Severe Weather on mobile